Time;durP1;ratioP1;P1;durP2;ratioP2;P2;SDS_P1;SDS_P2;PMS_P1;PMS_P2;Temp;Humidity;BMP_temperature;BMP_pressure;BME280_temperature;BME280_humidity;BME280_pressure;Samples;Min_cycle;Max_cycle;Signal;HPM_P1;HPM_P2
2023/07/16 00:02:28;;;;;;;9.70;5.80;;;22.50;99.90;;;;;;5033899;28;20033;-59
2023/07/16 00:05:14;;;;;;;6.97;5.15;;;22.30;99.90;;;;;;5033919;28;20175;-60
2023/07/16 00:08:00;;;;;;;8.85;5.70;;;22.20;99.90;;;;;;5034863;28;20026;-54
2023/07/16 00:10:46;;;;;;;7.18;5.55;;;22.10;99.90;;;;;;5033603;28;20521;-56
2023/07/16 00:13:32;;;;;;;7.95;4.95;;;22.10;99.90;;;;;;5033578;28;20117;-58
2023/07/16 00:16:18;;;;;;;7.30;5.20;;;22.00;99.90;;;;;;5034751;28;20064;-55
2023/07/16 00:19:04;;;;;;;5.45;4.03;;;22.10;99.90;;;;;;5034971;28;20025;-59
2023/07/16 00:21:50;;;;;;;7.22;4.28;;;22.10;99.90;;;;;;5046121;28;20041;-59
2023/07/16 00:24:36;;;;;;;4.78;3.97;;;22.10;99.90;;;;;;5043190;28;20033;-59
2023/07/16 00:27:22;;;;;;;4.55;4.00;;;22.00;99.90;;;;;;5034503;28;20037;-60
2023/07/16 00:30:08;;;;;;;6.00;3.70;;;22.00;99.90;;;;;;5033715;28;20029;-60
2023/07/16 00:32:54;;;;;;;3.58;3.28;;;22.10;99.90;;;;;;5034665;28;20022;-59
2023/07/16 00:35:49;;;;;;;4.68;3.60;;;22.10;99.90;;;;;;5032555;28;20517;-59
2023/07/16 00:38:35;;;;;;;5.70;3.20;;;22.00;99.90;;;;;;5033175;28;20037;-58
2023/07/16 00:41:21;;;;;;;3.65;3.05;;;22.00;99.90;;;;;;5034467;28;20398;-57
2023/07/16 00:44:07;;;;;;;4.00;3.30;;;22.00;99.90;;;;;;5033515;28;20037;-55
2023/07/16 00:46:53;;;;;;;9.13;4.35;;;22.00;99.90;;;;;;5033009;28;20033;-57
2023/07/16 00:49:39;;;;;;;4.10;3.30;;;21.80;99.90;;;;;;5032674;28;20025;-58
2023/07/16 00:52:25;;;;;;;6.18;3.58;;;21.80;99.90;;;;;;5034340;28;20038;-58
2023/07/16 00:55:12;;;;;;;4.55;3.95;;;21.90;99.90;;;;;;5033208;28;20025;-59
2023/07/16 00:58:05;;;;;;;8.07;5.20;;;21.80;99.90;;;;;;5033302;28;20034;-58
2023/07/16 01:00:51;;;;;;;8.00;6.88;;;21.90;99.90;;;;;;5034196;28;20120;-58
2023/07/16 01:03:37;;;;;;;6.25;4.60;;;22.00;99.90;;;;;;5032075;28;20041;-56
2023/07/16 01:06:39;;;;;;;5.28;3.90;;;22.00;99.90;;;;;;5033851;28;20362;-59
2023/07/16 01:09:25;;;;;;;8.70;4.18;;;22.00;99.90;;;;;;5033194;28;20052;-58
2023/07/16 01:12:13;;;;;;;9.90;3.92;;;22.00;99.90;;;;;;5033603;28;20034;-57
2023/07/16 01:14:59;;;;;;;5.57;3.63;;;21.90;99.90;;;;;;5033322;28;20436;-58
2023/07/16 01:17:45;;;;;;;5.88;4.00;;;21.90;99.90;;;;;;5033295;28;20406;-58
2023/07/16 01:20:31;;;;;;;4.63;4.10;;;21.90;99.90;;;;;;5033493;28;20459;-58
2023/07/16 01:23:45;;;;;;;4.90;3.90;;;21.90;99.90;;;;;;5033481;28;20056;-57
2023/07/16 01:26:34;;;;;;;5.82;4.20;;;21.90;99.90;;;;;;5031525;28;20505;-57
2023/07/16 01:29:34;;;;;;;6.03;4.40;;;21.90;99.90;;;;;;5031840;28;20037;-53
2023/07/16 01:32:21;;;;;;;6.60;4.10;;;21.90;99.90;;;;;;5032139;28;20451;-58
2023/07/16 01:35:09;;;;;;;6.20;4.00;;;21.90;99.90;;;;;;5032184;28;20087;-58
2023/07/16 01:37:55;;;;;;;5.97;3.97;;;21.90;99.90;;;;;;5033364;28;20022;-58
2023/07/16 01:40:41;;;;;;;6.07;4.57;;;21.80;99.90;;;;;;5031826;28;20033;-57
2023/07/16 01:43:26;;;;;;;5.60;4.20;;;21.70;99.90;;;;;;5031873;28;20120;-58
2023/07/16 01:46:12;;;;;;;5.60;4.30;;;21.70;99.90;;;;;;5031462;28;20079;-58
2023/07/16 01:48:58;;;;;;;5.28;4.10;;;21.60;99.90;;;;;;5032993;28;20076;-57
2023/07/16 01:51:44;;;;;;;5.38;3.90;;;21.60;99.90;;;;;;5031719;28;20026;-57
2023/07/16 01:54:30;;;;;;;5.25;4.28;;;21.50;99.90;;;;;;5031620;28;20029;-58
2023/07/16 01:57:16;;;;;;;5.38;4.35;;;21.50;99.90;;;;;;5031487;28;20428;-57
2023/07/16 02:00:03;;;;;;;5.00;4.10;;;21.60;99.90;;;;;;5031709;28;20418;-58
2023/07/16 02:02:49;;;;;;;5.65;4.03;;;21.60;99.90;;;;;;5033302;28;20402;-58
2023/07/16 02:05:35;;;;;;;4.57;4.03;;;21.50;99.90;;;;;;5032899;28;20080;-57
2023/07/16 02:08:21;;;;;;;5.90;4.18;;;21.40;99.90;;;;;;5032559;28;20578;-56
2023/07/16 02:11:07;;;;;;;7.15;4.10;;;21.40;99.90;;;;;;5037145;28;20030;-58
2023/07/16 02:13:53;;;;;;;4.60;3.75;;;21.50;99.90;;;;;;5032857;28;20076;-57
2023/07/16 02:16:38;;;;;;;6.75;3.92;;;21.50;99.90;;;;;;5032766;28;20116;-57
2023/07/16 02:19:25;;;;;;;7.63;3.92;;;21.50;99.90;;;;;;5030817;28;20080;-58
2023/07/16 02:22:11;;;;;;;6.35;4.25;;;21.50;99.90;;;;;;5031553;28;20034;-58
2023/07/16 02:24:57;;;;;;;7.65;4.20;;;21.60;99.90;;;;;;5031341;28;20030;-58
2023/07/16 02:27:43;;;;;;;7.05;4.20;;;21.50;99.90;;;;;;5032243;28;20037;-58
2023/07/16 02:30:29;;;;;;;5.68;4.32;;;21.50;99.90;;;;;;5030767;28;20041;-58
2023/07/16 02:33:15;;;;;;;5.32;4.53;;;21.50;99.90;;;;;;5032365;28;20033;-57
2023/07/16 02:36:01;;;;;;;7.93;4.20;;;21.50;99.90;;;;;;5032444;28;20041;-57
2023/07/16 02:38:47;;;;;;;5.35;3.90;;;21.50;99.90;;;;;;5032245;28;20033;-57
2023/07/16 02:41:33;;;;;;;6.65;4.13;;;21.60;99.90;;;;;;5032463;28;20044;-53
2023/07/16 02:44:19;;;;;;;5.25;4.38;;;21.60;99.90;;;;;;5031462;28;20031;-53
2023/07/16 02:47:05;;;;;;;7.05;4.72;;;21.60;99.90;;;;;;5030496;28;20457;-57
2023/07/16 02:49:52;;;;;;;5.80;4.75;;;21.60;99.90;;;;;;5031221;28;20062;-55
2023/07/16 02:52:38;;;;;;;4.75;3.97;;;21.60;99.90;;;;;;5031824;28;20026;-53
2023/07/16 02:55:24;;;;;;;6.07;5.28;;;21.60;99.90;;;;;;5031154;28;20052;-55
2023/07/16 02:58:10;;;;;;;6.07;5.00;;;21.60;99.90;;;;;;5031370;28;20107;-54
2023/07/16 03:00:56;;;;;;;7.40;5.22;;;21.60;99.90;;;;;;5032805;28;20102;-53
2023/07/16 03:03:42;;;;;;;7.57;5.07;;;21.60;99.90;;;;;;5032680;28;20025;-54
2023/07/16 03:06:28;;;;;;;5.78;4.75;;;21.70;99.90;;;;;;5036152;28;20087;-56
2023/07/16 03:09:14;;;;;;;6.53;4.78;;;21.80;99.90;;;;;;5033150;28;20037;-57
2023/07/16 03:12:00;;;;;;;7.43;4.43;;;21.80;99.90;;;;;;5046439;28;20049;-57
2023/07/16 03:14:45;;;;;;;5.15;4.65;;;21.90;99.90;;;;;;5035037;28;20525;-58
2023/07/16 03:17:31;;;;;;;5.57;4.55;;;21.90;99.90;;;;;;5036221;28;20033;-57
2023/07/16 03:20:17;;;;;;;6.03;4.25;;;21.90;99.90;;;;;;5034914;28;20033;-56
2023/07/16 03:23:03;;;;;;;9.65;4.95;;;21.90;99.90;;;;;;5036163;28;20468;-57
2023/07/16 03:25:50;;;;;;;5.15;4.47;;;21.90;99.90;;;;;;5034126;28;20030;-57
2023/07/16 03:28:36;;;;;;;6.75;4.60;;;22.00;99.90;;;;;;5034766;28;20049;-58
2023/07/16 03:31:21;;;;;;;5.78;4.85;;;22.00;99.90;;;;;;5034394;28;20018;-55
2023/07/16 03:34:07;;;;;;;9.38;4.60;;;22.00;99.90;;;;;;5035563;28;20021;-52
2023/07/16 03:36:53;;;;;;;6.15;4.78;;;21.90;99.90;;;;;;5033970;28;20071;-54
2023/07/16 03:39:39;;;;;;;5.20;4.70;;;21.90;99.90;;;;;;5034074;28;20030;-55
2023/07/16 03:42:25;;;;;;;6.43;5.05;;;21.70;99.90;;;;;;5033599;28;20041;-53
2023/07/16 03:45:11;;;;;;;5.03;4.47;;;21.70;99.90;;;;;;5033940;28;20456;-54
2023/07/16 03:47:57;;;;;;;6.25;5.07;;;21.70;99.90;;;;;;5033302;28;20077;-54
2023/07/16 03:50:43;;;;;;;6.43;4.90;;;21.70;99.90;;;;;;5033940;28;20432;-55
2023/07/16 03:53:29;;;;;;;8.43;4.97;;;21.70;99.90;;;;;;5033829;28;20029;-54
2023/07/16 03:56:15;;;;;;;6.70;5.18;;;21.60;99.90;;;;;;5035922;28;20022;-55
2023/07/16 03:59:01;;;;;;;5.57;5.05;;;21.50;99.90;;;;;;5035255;28;20076;-54
2023/07/16 04:01:47;;;;;;;6.60;5.18;;;21.40;99.90;;;;;;5035416;28;20025;-56
2023/07/16 04:04:33;;;;;;;6.40;5.28;;;21.40;99.90;;;;;;5035049;28;20763;-53
2023/07/16 04:07:19;;;;;;;5.90;5.22;;;21.40;99.90;;;;;;5034912;28;20563;-53
2023/07/16 04:10:06;;;;;;;5.65;5.10;;;21.40;99.90;;;;;;5035715;28;20340;-51
2023/07/16 04:12:51;;;;;;;6.63;4.80;;;21.40;99.90;;;;;;5043724;28;20032;-51
2023/07/16 04:15:37;;;;;;;6.70;5.07;;;21.40;99.90;;;;;;5042910;28;20464;-55
2023/07/16 04:18:27;;;;;;;6.03;4.90;;;21.40;99.90;;;;;;5044109;28;20486;-55
2023/07/16 04:21:13;;;;;;;7.05;5.43;;;21.40;99.90;;;;;;5034408;28;20040;-54
2023/07/16 04:23:59;;;;;;;6.07;5.38;;;21.50;99.90;;;;;;5035217;28;20042;-52
2023/07/16 04:26:44;;;;;;;7.78;5.20;;;21.50;99.90;;;;;;5033855;28;20061;-55
2023/07/16 04:29:31;;;;;;;8.48;5.00;;;21.60;99.90;;;;;;5035508;28;20127;-52
2023/07/16 04:32:17;;;;;;;6.95;4.75;;;21.70;99.90;;;;;;5035457;28;20022;-51
2023/07/16 04:35:03;;;;;;;5.85;5.05;;;21.70;99.90;;;;;;5034799;28;20465;-54
2023/07/16 04:37:49;;;;;;;6.65;4.85;;;21.50;99.90;;;;;;5034044;28;20128;-52
2023/07/16 04:40:35;;;;;;;5.78;4.85;;;21.60;99.90;;;;;;5035720;28;20512;-52
2023/07/16 04:43:21;;;;;;;5.15;4.57;;;21.40;99.90;;;;;;5039131;28;20355;-53
2023/07/16 04:46:07;;;;;;;10.57;4.90;;;21.40;99.90;;;;;;5039911;28;20497;-54
2023/07/16 04:48:53;;;;;;;6.70;4.53;;;21.40;99.90;;;;;;5033429;28;20040;-54
2023/07/16 04:51:39;;;;;;;12.10;5.78;;;21.40;99.90;;;;;;5033291;28;20041;-51
2023/07/16 04:54:25;;;;;;;7.20;4.82;;;21.40;99.90;;;;;;5034663;28;20108;-54
2023/07/16 04:57:11;;;;;;;9.93;5.10;;;21.40;99.90;;;;;;5033993;28;20032;-53
2023/07/16 04:59:57;;;;;;;5.28;4.72;;;21.40;99.90;;;;;;5032472;28;20022;-52
2023/07/16 05:02:43;;;;;;;7.18;4.90;;;21.50;99.90;;;;;;5032292;28;20029;-54
2023/07/16 05:05:29;;;;;;;8.32;5.03;;;21.50;99.90;;;;;;5032681;28;20104;-55
2023/07/16 05:08:15;;;;;;;7.60;4.50;;;21.50;99.90;;;;;;5032511;28;20052;-53
2023/07/16 05:11:01;;;;;;;6.43;4.82;;;21.40;99.90;;;;;;5031480;28;20394;-53
2023/07/16 05:13:47;;;;;;;10.00;4.40;;;21.50;99.90;;;;;;5033644;28;20021;-54
2023/07/16 05:16:33;;;;;;;7.07;4.20;;;21.50;99.90;;;;;;5032045;28;20405;-53
2023/07/16 05:19:19;;;;;;;4.95;4.00;;;21.50;99.90;;;;;;5032381;28;20044;-54
2023/07/16 05:22:06;;;;;;;6.05;4.45;;;21.50;99.90;;;;;;5033688;28;20040;-56
2023/07/16 05:24:51;;;;;;;5.68;4.22;;;21.50;99.90;;;;;;5032891;28;20111;-52
2023/07/16 05:27:38;;;;;;;7.60;4.65;;;21.50;99.90;;;;;;5031895;28;20088;-56
2023/07/16 05:30:24;;;;;;;7.15;4.28;;;21.60;99.90;;;;;;5031623;28;20026;-55
2023/07/16 05:33:10;;;;;;;5.15;4.25;;;21.60;99.90;;;;;;5018197;28;20633;-57
2023/07/16 05:35:56;;;;;;;6.93;4.47;;;21.60;99.90;;;;;;5033244;28;20041;-53
2023/07/16 05:38:42;;;;;;;5.25;3.85;;;21.70;99.90;;;;;;5032145;28;20033;-52
2023/07/16 05:41:28;;;;;;;6.30;4.40;;;21.60;99.90;;;;;;5033180;28;20075;-55
2023/07/16 05:44:14;;;;;;;7.22;4.03;;;21.80;99.90;;;;;;5033020;28;20025;-56
2023/07/16 05:47:00;;;;;;;5.60;4.15;;;21.80;99.90;;;;;;5032936;28;20091;-54
2023/07/16 05:49:46;;;;;;;4.88;3.65;;;22.00;99.90;;;;;;5032039;28;20025;-53
2023/07/16 05:52:32;;;;;;;6.30;3.80;;;22.10;99.90;;;;;;5031397;28;20037;-55
2023/07/16 05:55:18;;;;;;;6.13;3.65;;;21.90;99.90;;;;;;5032496;28;20075;-54
2023/07/16 05:58:04;;;;;;;6.53;3.55;;;22.00;99.90;;;;;;5031157;28;20068;-56
2023/07/16 06:00:50;;;;;;;7.95;3.90;;;22.00;99.90;;;;;;5032844;28;20137;-55
2023/07/16 06:03:37;;;;;;;8.23;3.90;;;22.00;99.90;;;;;;5032295;28;20037;-57
2023/07/16 06:06:23;;;;;;;6.90;3.72;;;22.10;99.90;;;;;;5031660;28;20532;-54
2023/07/16 06:09:08;;;;;;;6.70;3.97;;;22.10;99.90;;;;;;5033136;28;20406;-53
2023/07/16 06:11:54;;;;;;;4.95;3.58;;;22.00;99.90;;;;;;5031353;28;20278;-51
2023/07/16 06:14:40;;;;;;;5.65;3.58;;;21.80;99.90;;;;;;5032698;28;20037;-51
2023/07/16 06:17:26;;;;;;;6.80;3.60;;;21.80;99.90;;;;;;5032362;28;20041;-54
2023/07/16 06:20:12;;;;;;;6.50;3.83;;;21.80;99.90;;;;;;5030970;28;20239;-52
2023/07/16 06:22:58;;;;;;;9.55;4.07;;;21.70;99.90;;;;;;5031644;28;20025;-55
2023/07/16 06:25:44;;;;;;;6.13;3.70;;;21.80;99.90;;;;;;5031507;28;20112;-51
2023/07/16 06:28:30;;;;;;;8.35;3.47;;;21.90;99.90;;;;;;5030906;28;20447;-56
2023/07/16 06:31:17;;;;;;;5.80;3.53;;;21.90;99.90;;;;;;5032595;28;20036;-54
2023/07/16 06:34:03;;;;;;;8.80;3.50;;;21.90;99.90;;;;;;5031109;28;20037;-53
2023/07/16 06:36:49;;;;;;;5.72;3.78;;;21.90;99.90;;;;;;5031312;28;20488;-56
2023/07/16 06:39:35;;;;;;;6.30;3.70;;;21.90;99.90;;;;;;5031519;28;20025;-57
2023/07/16 06:42:21;;;;;;;6.03;3.65;;;21.90;99.90;;;;;;5035712;28;20082;-51
2023/07/16 06:45:08;;;;;;;8.95;3.60;;;22.00;99.90;;;;;;5036657;28;20111;-52
2023/07/16 06:47:54;;;;;;;9.23;3.78;;;22.00;99.90;;;;;;5034775;28;20046;-51
2023/07/16 06:50:40;;;;;;;6.43;3.50;;;22.00;99.90;;;;;;5036213;28;20025;-57
2023/07/16 06:53:26;;;;;;;4.85;3.33;;;22.00;99.90;;;;;;5036875;28;20021;-57
2023/07/16 06:56:12;;;;;;;5.22;3.55;;;22.10;99.90;;;;;;5035020;28;20120;-52
2023/07/16 06:58:58;;;;;;;8.60;3.33;;;22.00;99.90;;;;;;5036242;28;20039;-55
2023/07/16 07:01:44;;;;;;;6.35;3.30;;;22.00;99.90;;;;;;5036091;28;20087;-55
2023/07/16 07:04:30;;;;;;;7.55;3.63;;;21.90;99.90;;;;;;5035535;28;20113;-52
2023/07/16 07:07:15;;;;;;;5.85;3.40;;;22.00;99.90;;;;;;5039252;28;20034;-54
2023/07/16 07:10:02;;;;;;;6.25;3.72;;;21.90;99.90;;;;;;5040473;28;20402;-53
2023/07/16 07:12:47;;;;;;;4.75;3.30;;;22.00;99.90;;;;;;5040305;28;20036;-57
2023/07/16 07:15:33;;;;;;;7.20;3.58;;;21.90;99.90;;;;;;5041560;28;20036;-58
2023/07/16 07:18:19;;;;;;;7.53;3.97;;;21.90;99.90;;;;;;5044531;28;20065;-56
2023/07/16 07:21:05;;;;;;;7.65;3.63;;;22.00;99.90;;;;;;5036862;28;20520;-58
2023/07/16 07:23:51;;;;;;;8.30;3.55;;;22.00;99.90;;;;;;5036725;28;20538;-54
2023/07/16 07:26:37;;;;;;;6.60;3.40;;;22.10;99.90;;;;;;5038230;28;20037;-58
2023/07/16 07:29:23;;;;;;;6.25;3.53;;;22.20;99.80;;;;;;5036715;28;20048;-57
2023/07/16 07:32:09;;;;;;;5.78;3.90;;;22.20;99.60;;;;;;5037453;28;20060;-58
2023/07/16 07:34:55;;;;;;;5.55;3.80;;;22.30;99.50;;;;;;5035349;28;20466;-57
2023/07/16 07:37:41;;;;;;;7.28;3.45;;;22.40;99.60;;;;;;5034294;28;20418;-55
2023/07/16 07:40:27;;;;;;;8.60;3.85;;;22.50;99.60;;;;;;5034510;28;20042;-54
2023/07/16 07:43:13;;;;;;;4.75;3.20;;;22.60;99.00;;;;;;5034715;28;20091;-59
2023/07/16 07:45:59;;;;;;;7.28;3.83;;;22.50;98.00;;;;;;5034993;28;20026;-57
2023/07/16 07:48:45;;;;;;;4.78;3.28;;;22.40;97.90;;;;;;5035545;28;20032;-54
2023/07/16 07:51:31;;;;;;;6.07;3.80;;;22.60;98.10;;;;;;5035739;28;20024;-51
2023/07/16 07:54:17;;;;;;;5.28;3.55;;;22.90;97.30;;;;;;5033889;28;20450;-53
2023/07/16 07:57:04;;;;;;;8.07;3.60;;;23.00;97.30;;;;;;5035358;28;20060;-51
2023/07/16 07:59:56;;;;;;;4.85;3.33;;;23.00;96.00;;;;;;5036340;28;20475;-57
2023/07/16 08:02:42;;;;;;;5.47;3.20;;;22.90;95.50;;;;;;5035003;28;20053;-55
2023/07/16 08:05:28;;;;;;;8.35;3.97;;;22.70;95.70;;;;;;5034385;28;20437;-57
2023/07/16 08:08:15;;;;;;;5.75;3.58;;;22.70;95.90;;;;;;5033445;28;20040;-57
2023/07/16 08:11:01;;;;;;;6.07;3.40;;;22.90;96.00;;;;;;5033604;28;20044;-58
2023/07/16 08:13:47;;;;;;;7.00;3.47;;;23.10;94.80;;;;;;5035259;28;20498;-54
2023/07/16 08:16:33;;;;;;;6.93;3.55;;;23.20;93.40;;;;;;5036304;28;20029;-56
2023/07/16 08:19:19;;;;;;;4.07;2.70;;;23.50;92.30;;;;;;5039282;28;20037;-52
2023/07/16 08:22:05;;;;;;;6.70;3.67;;;23.60;90.70;;;;;;5040060;28;20524;-55
2023/07/16 08:24:51;;;;;;;7.38;3.67;;;23.70;92.50;;;;;;5035266;28;20033;-58
2023/07/16 08:27:37;;;;;;;8.82;3.10;;;23.70;92.70;;;;;;5034623;28;20026;-58
2023/07/16 08:30:23;;;;;;;7.65;3.38;;;23.50;90.30;;;;;;5033978;28;20037;-57
2023/07/16 08:33:09;;;;;;;6.13;3.28;;;23.20;90.80;;;;;;5033685;28;20480;-55
2023/07/16 08:35:55;;;;;;;7.80;3.20;;;23.30;90.10;;;;;;5033676;28;20036;-56
2023/07/16 08:38:41;;;;;;;3.97;2.90;;;23.30;90.30;;;;;;5033868;28;20029;-57
2023/07/16 08:41:28;;;;;;;5.20;2.92;;;23.30;85.90;;;;;;5034589;28;20437;-58
2023/07/16 08:44:14;;;;;;;6.03;3.22;;;23.30;85.90;;;;;;5019986;28;20117;-52
2023/07/16 08:47:00;;;;;;;9.13;3.42;;;23.40;87.50;;;;;;5032936;28;20056;-53
2023/07/16 08:49:58;;;;;;;7.60;3.22;;;23.50;88.30;;;;;;5032615;28;20025;-53
2023/07/16 08:52:45;;;;;;;7.13;3.75;;;23.60;89.10;;;;;;5032212;28;20103;-57
2023/07/16 08:55:31;;;;;;;7.78;3.03;;;23.60;89.40;;;;;;5032584;28;20033;-54
2023/07/16 08:58:17;;;;;;;7.82;3.30;;;23.60;89.70;;;;;;5033580;28;20505;-52
2023/07/16 09:01:05;;;;;;;5.47;3.15;;;23.80;89.60;;;;;;5033860;28;20037;-53
2023/07/16 09:03:51;;;;;;;5.25;2.80;;;23.80;89.80;;;;;;5031910;28;20029;-54
2023/07/16 09:06:37;;;;;;;6.00;3.20;;;23.70;89.00;;;;;;5032116;28;20038;-51
2023/07/16 09:09:23;;;;;;;4.65;3.28;;;23.50;88.70;;;;;;5032667;28;20084;-55
2023/07/16 09:12:12;;;;;;;4.43;3.28;;;23.40;88.10;;;;;;5033788;28;20087;-55
2023/07/16 09:14:58;;;;;;;6.25;3.50;;;23.50;86.20;;;;;;5032493;28;20100;-52
2023/07/16 09:17:48;;;;;;;5.72;3.13;;;23.60;87.00;;;;;;5032201;28;20478;-55
2023/07/16 09:20:34;;;;;;;6.60;3.15;;;23.90;88.30;;;;;;5033406;28;20562;-53
2023/07/16 09:23:20;;;;;;;5.13;3.35;;;24.10;85.20;;;;;;5033402;28;20029;-53
2023/07/16 09:26:06;;;;;;;5.38;2.97;;;24.10;83.70;;;;;;5032990;28;20025;-54
2023/07/16 09:28:52;;;;;;;5.53;3.45;;;24.00;84.00;;;;;;5031781;28;20037;-55
2023/07/16 09:31:50;;;;;;;8.07;3.78;;;24.00;83.50;;;;;;5031354;28;20476;-55
2023/07/16 09:34:36;;;;;;;6.20;3.25;;;24.00;84.30;;;;;;5031285;28;20030;-55
2023/07/16 09:37:22;;;;;;;6.95;3.28;;;23.90;83.60;;;;;;5031315;28;20029;-57
2023/07/16 09:40:10;;;;;;;7.60;3.33;;;24.20;85.30;;;;;;5033014;28;20084;-58
2023/07/16 09:42:56;;;;;;;8.05;3.30;;;24.40;83.40;;;;;;5031091;28;20014;-55
2023/07/16 09:45:42;;;;;;;5.65;2.90;;;24.30;84.40;;;;;;5032044;28;20036;-57
2023/07/16 09:48:28;;;;;;;7.07;3.78;;;24.40;81.70;;;;;;5036664;28;20033;-58
2023/07/16 09:51:15;;;;;;;6.70;3.67;;;24.50;80.70;;;;;;5034875;28;20045;-55
2023/07/16 09:54:02;;;;;;;4.55;2.90;;;24.60;80.60;;;;;;5032332;28;20076;-55
2023/07/16 09:56:58;;;;;;;6.75;3.50;;;24.70;79.40;;;;;;5031410;28;20029;-56
2023/07/16 09:59:46;;;;;;;7.75;3.58;;;24.70;79.10;;;;;;5031975;28;20030;-56
2023/07/16 10:02:36;;;;;;;5.60;3.40;;;24.90;77.20;;;;;;5033686;28;20065;-55
2023/07/16 10:05:27;;;;;;;6.38;3.13;;;24.80;78.70;;;;;;5033055;28;20030;-55
2023/07/16 10:08:20;;;;;;;5.07;3.20;;;24.80;76.60;;;;;;5031149;28;20037;-54
2023/07/16 10:11:16;;;;;;;5.55;3.30;;;24.50;76.10;;;;;;5032958;28;20034;-52
2023/07/16 10:14:02;;;;;;;5.72;3.10;;;24.50;76.00;;;;;;5032766;28;20084;-55
2023/07/16 10:16:48;;;;;;;5.53;3.00;;;24.30;76.50;;;;;;5015917;28;20095;-55
2023/07/16 10:19:46;;;;;;;5.80;2.80;;;24.40;75.90;;;;;;5030985;28;20034;-51
2023/07/16 10:22:34;;;;;;;4.57;3.22;;;24.40;76.80;;;;;;5031130;28;20433;-54
2023/07/16 10:25:27;;;;;;;5.03;3.20;;;24.40;78.20;;;;;;5030888;28;20026;-55
2023/07/16 10:28:13;;;;;;;6.18;3.00;;;24.60;79.00;;;;;;4992661;28;1109960;-56
2023/07/16 10:30:59;;;;;;;7.75;3.28;;;24.80;79.00;;;;;;5031249;28;20030;-55
2023/07/16 10:33:59;;;;;;;7.70;3.78;;;25.00;78.70;;;;;;5032130;28;20466;-57
2023/07/16 10:36:45;;;;;;;4.85;3.28;;;25.00;77.80;;;;;;5031800;28;20025;-57
2023/07/16 10:39:32;;;;;;;7.28;3.42;;;24.70;75.70;;;;;;5031200;28;20033;-58
2023/07/16 10:42:19;;;;;;;6.30;3.40;;;24.70;76.50;;;;;;5031402;28;20037;-55
2023/07/16 10:45:05;;;;;;;5.40;3.33;;;24.80;75.20;;;;;;5031539;28;20029;-52
2023/07/16 10:47:54;;;;;;;6.30;3.60;;;25.00;75.10;;;;;;5030713;28;20037;-57
2023/07/16 10:50:40;;;;;;;4.72;3.50;;;25.20;74.80;;;;;;5032732;28;20032;-56
2023/07/16 10:53:26;;;;;;;7.25;3.47;;;25.30;74.60;;;;;;5031585;28;20036;-57
2023/07/16 10:56:12;;;;;;;6.72;3.30;;;25.20;74.20;;;;;;5031043;28;20030;-57
2023/07/16 10:58:58;;;;;;;6.78;3.50;;;25.30;73.90;;;;;;5033230;28;20530;-57
2023/07/16 11:01:45;;;;;;;8.13;3.40;;;25.20;74.80;;;;;;5030986;28;20519;-57
2023/07/16 11:04:35;;;;;;;5.18;3.15;;;25.10;75.30;;;;;;5032837;28;20033;-57
2023/07/16 11:07:21;;;;;;;7.35;3.40;;;25.20;74.40;;;;;;5032488;28;20032;-57
2023/07/16 11:10:08;;;;;;;6.80;3.42;;;25.30;74.20;;;;;;5032818;28;20060;-54
2023/07/16 11:12:54;;;;;;;7.40;3.42;;;25.40;74.70;;;;;;5030946;28;20037;-53
2023/07/16 11:15:40;;;;;;;5.68;3.38;;;25.50;73.10;;;;;;5031209;28;20040;-54
2023/07/16 11:18:26;;;;;;;6.93;3.72;;;25.30;74.10;;;;;;5034458;28;20109;-54
2023/07/16 11:21:12;;;;;;;6.38;3.58;;;25.30;72.60;;;;;;5033460;28;20025;-54
2023/07/16 11:24:08;;;;;;;6.57;3.60;;;25.20;74.00;;;;;;5031451;28;20080;-54
2023/07/16 11:26:57;;;;;;;6.97;3.28;;;25.40;73.60;;;;;;5031328;28;20125;-53
2023/07/16 11:29:51;;;;;;;5.80;3.13;;;25.50;72.30;;;;;;5035915;28;20042;-54
2023/07/16 11:32:46;;;;;;;5.53;3.58;;;25.40;72.70;;;;;;5034995;28;20030;-55
2023/07/16 11:35:32;;;;;;;5.78;3.30;;;25.60;72.90;;;;;;5036471;28;20053;-57
2023/07/16 11:38:18;;;;;;;8.30;4.35;;;25.60;72.50;;;;;;5034320;28;20540;-54
2023/07/16 11:41:05;;;;;;;5.38;3.35;;;25.80;73.00;;;;;;5033944;28;20051;-55
2023/07/16 11:43:51;;;;;;;6.22;3.70;;;26.10;73.60;;;;;;5034832;28;20034;-53
2023/07/16 11:46:36;;;;;;;6.97;3.67;;;26.10;72.20;;;;;;5034299;28;20029;-53
2023/07/16 11:49:22;;;;;;;6.18;3.40;;;26.10;72.00;;;;;;5033870;28;20048;-51
2023/07/16 11:52:09;;;;;;;5.22;3.67;;;26.00;71.70;;;;;;5034502;28;20486;-55
2023/07/16 11:55:01;;;;;;;8.43;3.70;;;26.00;70.30;;;;;;5034182;28;20032;-54
2023/07/16 11:57:47;;;;;;;6.50;3.42;;;25.80;70.50;;;;;;5034077;28;20029;-55
2023/07/16 12:00:33;;;;;;;7.28;3.63;;;25.90;71.40;;;;;;5035333;28;20430;-54
2023/07/16 12:03:19;;;;;;;6.18;3.75;;;25.90;72.60;;;;;;5034409;28;20383;-54
2023/07/16 12:06:05;;;;;;;5.88;3.60;;;26.10;70.60;;;;;;5035504;28;20151;-54
2023/07/16 12:08:50;;;;;;;9.27;3.70;;;26.10;69.90;;;;;;5035220;28;20122;-51
2023/07/16 12:11:37;;;;;;;6.20;3.88;;;26.10;69.90;;;;;;5035343;28;20386;-52
2023/07/16 12:14:23;;;;;;;4.85;3.53;;;25.80;69.30;;;;;;5034278;28;20029;-57
2023/07/16 12:17:09;;;;;;;6.63;3.63;;;25.80;70.00;;;;;;5034782;28;20029;-57
2023/07/16 12:19:55;;;;;;;5.28;3.17;;;26.10;70.60;;;;;;5036758;28;20067;-57
2023/07/16 12:22:41;;;;;;;9.20;3.80;;;26.30;68.90;;;;;;5035587;28;20033;-56
2023/07/16 12:25:27;;;;;;;10.10;3.92;;;26.30;69.50;;;;;;5033426;28;20030;-57
2023/07/16 12:28:13;;;;;;;7.05;4.30;;;26.30;69.30;;;;;;5036260;28;20033;-55
2023/07/16 12:30:59;;;;;;;5.07;3.60;;;26.30;68.60;;;;;;5035478;28;20029;-54
2023/07/16 12:33:46;;;;;;;7.05;3.75;;;26.40;68.70;;;;;;5035255;28;20053;-52
2023/07/16 12:36:31;;;;;;;5.07;3.50;;;26.30;69.00;;;;;;5033654;28;20411;-56
2023/07/16 12:39:18;;;;;;;8.75;4.50;;;26.20;69.10;;;;;;5032136;28;20083;-55
2023/07/16 12:42:05;;;;;;;6.30;3.75;;;26.50;69.70;;;;;;5033553;28;20025;-55
2023/07/16 12:44:51;;;;;;;7.25;4.00;;;26.70;67.10;;;;;;5032970;28;20022;-54
2023/07/16 12:47:38;;;;;;;7.65;3.83;;;26.70;66.40;;;;;;5033600;28;20025;-52
2023/07/16 12:50:25;;;;;;;8.43;3.85;;;26.70;66.00;;;;;;5033359;28;20034;-52
2023/07/16 12:53:12;;;;;;;9.63;4.03;;;26.80;65.70;;;;;;5034305;28;20061;-52
2023/07/16 12:55:58;;;;;;;4.40;3.60;;;26.70;65.50;;;;;;5033460;28;20033;-56
2023/07/16 12:58:44;;;;;;;5.75;3.63;;;26.70;65.60;;;;;;5032558;28;20065;-56
2023/07/16 13:01:30;;;;;;;7.05;3.78;;;26.60;66.40;;;;;;5034330;28;20505;-55
2023/07/16 13:04:16;;;;;;;5.00;3.88;;;26.70;64.20;;;;;;5033983;28;20087;-52
2023/07/16 13:07:02;;;;;;;9.18;4.25;;;26.80;65.70;;;;;;5032657;28;20670;-53
2023/07/16 13:09:48;;;;;;;8.25;4.32;;;27.00;63.70;;;;;;5033596;28;20029;-53
2023/07/16 13:12:34;;;;;;;6.10;3.83;;;26.80;63.60;;;;;;5032299;28;20025;-53
2023/07/16 13:15:20;;;;;;;5.25;3.70;;;27.00;64.20;;;;;;5033708;28;20037;-56
2023/07/16 13:18:10;;;;;;;5.53;3.83;;;27.10;64.30;;;;;;5032361;28;20422;-54
2023/07/16 13:20:56;;;;;;;6.55;4.28;;;27.20;64.10;;;;;;5032465;28;20033;-53
2023/07/16 13:23:42;;;;;;;5.18;4.10;;;27.30;64.90;;;;;;5032031;28;20030;-52
2023/07/16 13:26:28;;;;;;;6.32;3.95;;;27.30;63.10;;;;;;5031495;28;20034;-54
2023/07/16 13:29:14;;;;;;;6.90;3.78;;;27.20;63.60;;;;;;5033970;28;20414;-55
2023/07/16 13:32:00;;;;;;;6.53;4.20;;;27.20;63.80;;;;;;5034242;28;20472;-57
2023/07/16 13:34:46;;;;;;;8.00;4.15;;;27.20;62.80;;;;;;5032372;28;20041;-56
2023/07/16 13:37:32;;;;;;;5.50;4.15;;;27.40;62.20;;;;;;5031830;28;20038;-54
2023/07/16 13:40:20;;;;;;;10.13;4.07;;;27.20;61.30;;;;;;5032164;28;20406;-55
2023/07/16 13:43:06;;;;;;;8.70;4.40;;;27.20;61.40;;;;;;5032341;28;20164;-54
2023/07/16 13:45:52;;;;;;;5.40;4.20;;;27.30;61.50;;;;;;5031858;28;20036;-54
2023/07/16 13:48:39;;;;;;;6.57;3.88;;;27.20;61.90;;;;;;5033086;28;20037;-55
2023/07/16 13:51:26;;;;;;;4.82;3.90;;;27.30;61.80;;;;;;5031708;28;20566;-53
2023/07/16 13:54:12;;;;;;;6.13;3.88;;;27.60;62.20;;;;;;5032195;28;20490;-55
2023/07/16 13:56:58;;;;;;;7.18;4.40;;;27.90;61.50;;;;;;5031743;28;20025;-58
2023/07/16 13:59:44;;;;;;;7.43;4.35;;;28.20;60.70;;;;;;5031468;28;20029;-53
2023/07/16 14:02:30;;;;;;;7.35;4.60;;;28.10;60.80;;;;;;5031623;28;20160;-56
2023/07/16 14:05:16;;;;;;;6.57;4.00;;;28.00;61.10;;;;;;5033967;28;20037;-56
2023/07/16 14:08:02;;;;;;;7.30;4.40;;;27.60;61.20;;;;;;5031879;28;20123;-55
2023/07/16 14:10:51;;;;;;;8.60;4.80;;;27.60;61.30;;;;;;5032941;28;20032;-55
2023/07/16 14:13:37;;;;;;;8.18;4.30;;;28.20;62.30;;;;;;5031362;28;20101;-52
2023/07/16 14:16:23;;;;;;;6.82;4.32;;;28.80;61.10;;;;;;5032776;28;20112;-53
2023/07/16 14:19:09;;;;;;;7.55;4.47;;;29.00;59.90;;;;;;5031502;28;20049;-55
2023/07/16 14:21:55;;;;;;;7.20;4.63;;;28.30;60.00;;;;;;5031728;28;20045;-52
2023/07/16 14:24:42;;;;;;;7.28;4.40;;;28.10;60.10;;;;;;5031974;28;20021;-52
2023/07/16 14:27:28;;;;;;;6.68;4.00;;;28.30;59.50;;;;;;5031120;28;20038;-55